createdAt,value
2023-01-24T00:01:53.863Z,7.70
2023-01-24T00:04:55.405Z,18.10
2023-01-24T00:07:56.826Z,19.10
2023-01-24T00:11:03.582Z,17.10
2023-01-24T00:14:04.938Z,6.40
2023-01-24T00:17:07.997Z,4.30
2023-01-24T00:20:10.325Z,16.10
2023-01-24T00:23:11.645Z,28.70
2023-01-24T00:26:13.989Z,14.40
2023-01-24T00:29:15.879Z,20.00
2023-01-24T00:32:17.333Z,25.10
2023-01-24T00:35:18.974Z,28.80
2023-01-24T00:38:21.295Z,10.60
2023-01-24T00:41:22.735Z,10.90
2023-01-24T00:44:27.329Z,7.80
2023-01-24T00:47:28.725Z,5.60
2023-01-24T00:50:30.382Z,3.60
2023-01-24T00:53:32.169Z,13.70
2023-01-24T00:56:33.655Z,5.40
2023-01-24T00:59:35.121Z,7.70
2023-01-24T01:02:36.668Z,5.20
2023-01-24T01:05:38.108Z,8.00
2023-01-24T01:08:39.617Z,13.50
2023-01-24T01:11:41.942Z,8.20
2023-01-24T01:14:43.487Z,7.50
2023-01-24T01:17:44.889Z,12.30
2023-01-24T01:20:51.280Z,12.50
2023-01-24T01:23:52.706Z,8.70
2023-01-24T01:26:54.151Z,5.10
2023-01-24T01:29:55.587Z,9.00
2023-01-24T01:32:57.053Z,6.30
2023-01-24T01:35:58.475Z,6.10
2023-01-24T01:38:59.915Z,3.40
2023-01-24T01:42:02.082Z,6.00
2023-01-24T01:45:35.008Z,3.80
2023-01-24T01:48:46.675Z,5.90
2023-01-24T01:51:53.321Z,6.70
2023-01-24T01:55:00.594Z,8.40
2023-01-24T01:58:02.742Z,6.90
2023-01-24T02:01:05.061Z,5.50
2023-01-24T02:04:14.516Z,6.40
2023-01-24T02:07:42.556Z,6.70
2023-01-24T02:11:02.840Z,4.40
2023-01-24T02:14:24.479Z,4.90
2023-01-24T02:17:25.934Z,3.70
2023-01-24T02:20:38.361Z,4.80
2023-01-24T02:24:05.931Z,6.10
2023-01-24T02:27:07.425Z,5.30
2023-01-24T02:30:09.853Z,4.10
2023-01-24T02:33:13.678Z,7.00
2023-01-24T02:36:30.825Z,9.70
2023-01-24T02:39:43.418Z,5.40
2023-01-24T02:42:46.860Z,7.30
2023-01-24T02:45:48.371Z,5.60
2023-01-24T02:48:52.808Z,4.40
2023-01-24T02:52:12.926Z,4.70
2023-01-24T02:55:14.792Z,5.50
2023-01-24T02:58:16.478Z,5.90
2023-01-24T03:01:20.606Z,11.10
2023-01-24T03:04:25.130Z,6.80
2023-01-24T03:07:26.513Z,4.50
2023-01-24T03:10:31.480Z,7.00
2023-01-24T03:13:54.649Z,8.00
2023-01-24T03:17:14.602Z,11.00
2023-01-24T03:20:35.326Z,8.60
2023-01-24T03:23:55.749Z,6.60
2023-01-24T03:27:16.202Z,5.00
2023-01-24T03:30:36.733Z,5.00
2023-01-24T03:33:57.615Z,9.70
2023-01-24T03:37:00.797Z,6.30
2023-01-24T03:40:04.450Z,5.30
2023-01-24T03:43:06.240Z,7.80
2023-01-24T03:46:10.980Z,4.30
2023-01-24T03:49:40.513Z,4.70
2023-01-24T03:52:41.956Z,4.00
2023-01-24T03:55:43.659Z,7.50
2023-01-24T03:58:45.124Z,4.50
2023-01-24T04:01:47.548Z,4.40
2023-01-24T04:05:14.057Z,3.70
2023-01-24T04:08:18.276Z,4.50
2023-01-24T04:11:19.991Z,4.30
2023-01-24T04:17:36.470Z,4.20
2023-01-24T04:20:38.933Z,3.30
2023-01-24T04:23:40.635Z,3.60
2023-01-24T04:26:42.118Z,3.80
2023-01-24T04:29:47.170Z,6.00
2023-01-24T04:32:49.368Z,5.80
2023-01-24T04:35:58.860Z,3.70
2023-01-24T04:39:00.791Z,4.70
2023-01-24T04:42:07.888Z,4.50
2023-01-24T04:45:11.296Z,4.60
2023-01-24T04:48:13.492Z,9.20
2023-01-24T04:51:14.907Z,4.70
2023-01-24T04:54:20.484Z,5.10
2023-01-24T04:57:22.520Z,3.60
2023-01-24T05:00:24.605Z,3.80
2023-01-24T05:03:26.833Z,5.90
2023-01-24T05:06:30.808Z,3.90
2023-01-24T05:12:37.887Z,3.80
2023-01-24T05:15:47.969Z,4.30
2023-01-24T05:18:49.541Z,5.20
2023-01-24T05:21:51.690Z,7.00
2023-01-24T05:24:53.270Z,6.30
2023-01-24T05:27:54.651Z,5.50
2023-01-24T05:31:00.882Z,7.30
2023-01-24T05:34:05.522Z,3.50
2023-01-24T05:37:07.255Z,4.00
2023-01-24T05:40:10.101Z,5.80
2023-01-24T05:43:12.785Z,4.20
2023-01-24T05:46:22.465Z,5.80
2023-01-24T05:49:42.458Z,4.50
2023-01-24T05:52:45.304Z,5.20
2023-01-24T05:55:47.041Z,7.10
2023-01-24T05:58:49.038Z,3.70
2023-01-24T06:01:53.322Z,4.90
2023-01-24T06:04:55.242Z,5.50
2023-01-24T06:07:57.491Z,4.00
2023-01-24T06:11:07.291Z,4.80
2023-01-24T06:14:09.316Z,4.10
2023-01-24T06:17:10.680Z,6.60
2023-01-24T06:20:12.820Z,7.70
2023-01-24T06:23:24.560Z,4.20
2023-01-24T06:26:28.966Z,5.30
2023-01-24T06:29:30.627Z,5.00
2023-01-24T06:32:51.664Z,5.10
2023-01-24T06:36:13.025Z,6.00
2023-01-24T06:39:15.931Z,4.00
2023-01-24T06:42:19.277Z,5.10
2023-01-24T06:45:21.892Z,5.50
2023-01-24T06:48:23.498Z,3.00
2023-01-24T06:51:24.950Z,3.20
2023-01-24T06:54:26.312Z,4.20
2023-01-24T06:57:27.674Z,3.70
2023-01-24T07:00:30.084Z,5.60
2023-01-24T07:03:31.555Z,2.90
2023-01-24T07:06:32.927Z,5.00
2023-01-24T07:09:34.333Z,5.00
2023-01-24T07:12:35.713Z,3.80
2023-01-24T07:15:37.168Z,5.90
2023-01-24T07:18:38.801Z,6.10
2023-01-24T07:21:40.743Z,4.40
2023-01-24T07:24:43.182Z,7.10
2023-01-24T07:27:45.854Z,9.50
2023-01-24T07:30:49.468Z,9.40
2023-01-24T07:33:51.518Z,7.40
2023-01-24T07:36:52.871Z,10.30
2023-01-24T07:39:54.278Z,6.40
2023-01-24T07:42:55.627Z,11.80
2023-01-24T07:45:57.032Z,14.50
2023-01-24T07:48:58.787Z,24.10
2023-01-24T07:52:00.126Z,47.60
2023-01-24T07:55:01.577Z,42.30
2023-01-24T07:58:03.591Z,34.30
2023-01-24T08:01:05.225Z,33.20
2023-01-24T08:04:06.745Z,26.30
2023-01-24T08:07:17.175Z,42.70
2023-01-24T08:10:18.782Z,167.60
2023-01-24T08:13:20.257Z,210.40
2023-01-24T08:16:29.993Z,162.20
2023-01-24T08:19:53.733Z,127.00
2023-01-24T08:22:58.048Z,106.60
2023-01-24T08:26:01.195Z,166.90
2023-01-24T08:29:02.708Z,171.30
2023-01-24T08:32:04.202Z,79.80
2023-01-24T08:35:06.111Z,72.10
2023-01-24T08:38:08.447Z,27.20
2023-01-24T08:41:09.806Z,22.60
2023-01-24T08:44:11.189Z,31.50
2023-01-24T08:47:12.549Z,40.90
2023-01-24T08:50:16.660Z,69.00
2023-01-24T08:53:18.046Z,43.10
2023-01-24T08:56:19.558Z,61.50
2023-01-24T08:59:21.318Z,128.40
2023-01-24T09:02:22.800Z,89.30
2023-01-24T09:05:24.876Z,93.30
2023-01-24T09:08:27.011Z,71.00
2023-01-24T09:11:28.505Z,59.80
2023-01-24T09:14:29.945Z,45.10
2023-01-24T09:17:32.841Z,46.70
2023-01-24T09:20:34.711Z,28.20
2023-01-24T09:23:36.271Z,24.50
2023-01-24T09:26:37.671Z,19.10
2023-01-24T09:29:39.041Z,19.60
2023-01-24T09:32:43.976Z,19.90
2023-01-24T09:36:02.831Z,47.50
2023-01-24T09:39:05.836Z,19.60
2023-01-24T09:42:25.046Z,24.90
2023-01-24T09:45:32.625Z,48.90
2023-01-24T09:48:34.182Z,24.40
2023-01-24T09:51:41.195Z,25.10
2023-01-24T09:54:56.300Z,18.40
2023-01-24T09:57:57.724Z,16.50
2023-01-24T10:01:07.625Z,74.50
2023-01-24T10:04:17.580Z,18.50
2023-01-24T10:07:29.944Z,15.50
2023-01-24T10:10:43.974Z,21.30
2023-01-24T10:14:04.745Z,20.10
2023-01-24T10:17:09.314Z,18.10
2023-01-24T10:20:27.564Z,15.30
2023-01-24T10:23:35.849Z,27.30
2023-01-24T10:26:41.939Z,191.10
2023-01-24T10:29:45.194Z,35.70
2023-01-24T10:32:52.804Z,171.00
2023-01-24T10:35:59.029Z,75.40
2023-01-24T10:39:00.467Z,52.70
2023-01-24T10:42:03.983Z,118.90
2023-01-24T10:45:24.905Z,88.00
2023-01-24T10:48:46.564Z,38.10
2023-01-24T10:52:07.442Z,33.10
2023-01-24T10:55:36.138Z,27.70
2023-01-24T10:58:43.137Z,30.40
2023-01-24T11:01:49.711Z,48.10
2023-01-24T11:05:03.882Z,15.90
2023-01-24T11:08:05.513Z,12.80
2023-01-24T11:11:29.758Z,11.00
2023-01-24T11:14:35.069Z,9.50
2023-01-24T11:17:38.405Z,8.60
2023-01-24T11:20:42.803Z,8.30
2023-01-24T11:23:45.063Z,8.90
2023-01-24T11:27:14.905Z,7.80
2023-01-24T11:30:20.429Z,8.00
2023-01-24T11:33:21.891Z,7.30
2023-01-24T11:36:55.356Z,7.60
2023-01-24T11:40:20.789Z,7.80
2023-01-24T11:43:22.213Z,6.80
2023-01-24T11:46:44.054Z,9.30
2023-01-24T11:50:02.483Z,9.90
2023-01-24T11:53:27.834Z,10.20
2023-01-24T11:56:44.274Z,9.50
2023-01-24T12:00:02.186Z,6.70
2023-01-24T12:03:24.497Z,7.10
2023-01-24T12:06:32.063Z,8.90
2023-01-24T12:09:39.658Z,11.10
2023-01-24T12:12:57.104Z,9.20
2023-01-24T12:16:21.184Z,7.80
2023-01-24T12:19:37.423Z,9.30
2023-01-24T12:22:42.189Z,9.10
2023-01-24T12:25:45.625Z,7.50
2023-01-24T12:29:10.457Z,7.00
2023-01-24T12:32:23.667Z,7.30
2023-01-24T12:35:41.995Z,7.80
2023-01-24T12:38:47.196Z,8.40
2023-01-24T12:42:02.070Z,8.30
2023-01-24T12:45:11.963Z,7.80
2023-01-24T12:48:48.153Z,7.50
2023-01-24T12:51:59.571Z,8.00
2023-01-24T12:55:11.393Z,11.30
2023-01-24T12:58:22.290Z,12.70
2023-01-24T13:01:45.571Z,7.90
2023-01-24T13:05:02.225Z,9.50
2023-01-24T13:08:14.834Z,7.10
2023-01-24T13:11:24.224Z,12.60
2023-01-24T13:14:37.864Z,11.70
2023-01-24T13:17:48.109Z,16.30
2023-01-24T13:21:08.438Z,15.80
2023-01-24T13:24:31.960Z,15.50
2023-01-24T13:28:03.739Z,8.50
2023-01-24T13:31:05.207Z,9.80
2023-01-24T13:34:16.058Z,9.00
2023-01-24T13:37:25.230Z,8.90
2023-01-24T13:40:35.255Z,12.90
2023-01-24T13:43:36.641Z,17.40
2023-01-24T13:46:44.511Z,9.30
2023-01-24T13:50:10.450Z,9.40
2023-01-24T13:53:11.920Z,7.90
2023-01-24T13:56:13.389Z,6.30
2023-01-24T13:59:14.902Z,8.80
2023-01-24T14:02:32.423Z,7.30
2023-01-24T14:05:40.420Z,5.90
2023-01-24T14:08:45.804Z,29.70
2023-01-24T14:12:04.678Z,28.60
2023-01-24T14:15:31.551Z,37.90
2023-01-24T14:19:14.433Z,14.00
2023-01-24T14:22:21.354Z,9.00
2023-01-24T14:25:35.101Z,3.40
2023-01-24T14:28:41.313Z,3.60
2023-01-24T14:31:47.330Z,4.10
2023-01-24T14:35:15.131Z,8.80
2023-01-24T14:38:18.390Z,4.20
2023-01-24T14:41:22.513Z,5.30
2023-01-24T14:44:27.135Z,3.90
2023-01-24T14:47:29.803Z,4.50
2023-01-24T14:50:34.675Z,6.60
2023-01-24T14:53:37.626Z,3.30
2023-01-24T14:56:40.470Z,6.60
2023-01-24T14:59:42.411Z,3.80
2023-01-24T15:02:50.070Z,3.90
2023-01-24T15:06:04.270Z,3.60
2023-01-24T15:09:05.925Z,5.10
2023-01-24T15:12:29.641Z,4.00
2023-01-24T15:15:31.785Z,4.60
2023-01-24T15:18:45.021Z,7.00
2023-01-24T15:21:48.411Z,6.60
2023-01-24T15:25:00.223Z,3.70
2023-01-24T15:28:11.113Z,4.00
2023-01-24T15:31:27.561Z,4.60
2023-01-24T15:34:31.022Z,4.30
2023-01-24T15:37:32.425Z,4.60
2023-01-24T15:40:55.467Z,6.30
2023-01-24T15:44:07.377Z,4.30
2023-01-24T15:47:40.983Z,4.50
2023-01-24T15:51:11.235Z,4.20
2023-01-24T15:54:14.552Z,5.20
2023-01-24T15:57:26.587Z,4.50
2023-01-24T16:00:28.712Z,4.90
2023-01-24T16:03:30.217Z,4.90
2023-01-24T16:06:31.618Z,5.20
2023-01-24T16:09:33.517Z,4.30
2023-01-24T16:12:35.192Z,6.90
2023-01-24T16:15:36.718Z,4.90
2023-01-24T16:18:38.205Z,5.20
2023-01-24T16:21:39.658Z,5.20
2023-01-24T16:24:41.099Z,5.30
2023-01-24T16:27:43.155Z,4.60
2023-01-24T16:30:44.697Z,6.20
2023-01-24T16:33:46.153Z,5.60
2023-01-24T16:36:47.983Z,5.10
2023-01-24T16:39:49.685Z,5.20
2023-01-24T16:42:51.988Z,15.00
2023-01-24T16:45:53.385Z,60.50
2023-01-24T16:48:55.435Z,39.20
2023-01-24T16:51:56.843Z,9.30
2023-01-24T16:54:58.291Z,6.00
2023-01-24T16:58:00.269Z,6.20
2023-01-24T17:01:07.219Z,8.00
2023-01-24T17:04:12.191Z,6.50
2023-01-24T17:07:14.771Z,5.90
2023-01-24T17:10:17.091Z,7.40
2023-01-24T17:13:20.284Z,5.70
2023-01-24T17:16:23.751Z,88.10
2023-01-24T17:19:25.187Z,61.50
2023-01-24T17:22:28.051Z,76.00
2023-01-24T17:25:31.231Z,92.60
2023-01-24T17:28:32.787Z,117.50
2023-01-24T17:31:34.293Z,16.90
2023-01-24T17:34:35.789Z,9.50
2023-01-24T17:37:37.434Z,7.00
2023-01-24T17:40:38.824Z,85.70
2023-01-24T17:43:51.953Z,41.80
2023-01-24T17:46:54.494Z,29.00
2023-01-24T17:49:55.962Z,81.50
2023-01-24T17:52:57.393Z,129.90
2023-01-24T17:55:58.734Z,116.10
2023-01-24T17:59:00.272Z,72.20
2023-01-24T18:02:02.175Z,56.90
2023-01-24T18:05:04.205Z,13.30
2023-01-24T18:08:06.713Z,9.90
2023-01-24T18:11:12.917Z,9.80
2023-01-24T18:14:14.314Z,8.60
2023-01-24T18:17:15.705Z,14.20
2023-01-24T18:20:17.135Z,8.30
2023-01-24T18:23:18.585Z,10.30
2023-01-24T18:26:20.750Z,9.50
2023-01-24T18:29:22.142Z,8.70
2023-01-24T18:32:23.567Z,8.60
2023-01-24T18:35:25.005Z,8.30
2023-01-24T18:38:28.114Z,9.10
2023-01-24T18:41:29.941Z,45.70
2023-01-24T18:44:32.231Z,39.30
2023-01-24T18:47:33.664Z,57.70
2023-01-24T18:50:36.381Z,289.70
2023-01-24T18:53:38.124Z,335.00
2023-01-24T18:56:39.532Z,110.90
2023-01-24T18:59:40.935Z,65.90
2023-01-24T19:02:44.636Z,178.90
2023-01-24T19:05:46.476Z,230.60
2023-01-24T19:09:01.741Z,258.60
2023-01-24T19:12:04.295Z,221.30
2023-01-24T19:15:09.750Z,137.90
2023-01-24T19:18:11.167Z,109.70
2023-01-24T19:21:14.990Z,23.20
2023-01-24T19:24:16.736Z,12.20
2023-01-24T19:27:18.455Z,40.20
2023-01-24T19:30:19.939Z,53.90
2023-01-24T19:33:23.843Z,26.80
2023-01-24T19:36:25.700Z,19.40
2023-01-24T19:39:27.390Z,40.00
2023-01-24T19:42:28.800Z,67.00
2023-01-24T19:45:30.249Z,72.80
2023-01-24T19:48:31.752Z,29.30
2023-01-24T19:51:33.228Z,20.50
2023-01-24T19:54:34.695Z,37.90
2023-01-24T19:57:36.171Z,52.00
2023-01-24T20:00:37.598Z,40.00
2023-01-24T20:03:39.266Z,166.40
2023-01-24T20:06:40.737Z,348.90
2023-01-24T20:09:42.451Z,269.10
2023-01-24T20:12:43.977Z,164.40
2023-01-24T20:15:45.374Z,210.60
2023-01-24T20:18:51.761Z,100.70
2023-01-24T20:21:53.604Z,199.90
2023-01-24T20:24:55.092Z,320.30
2023-01-24T20:27:56.469Z,169.50
2023-01-24T20:31:05.784Z,98.50
2023-01-24T20:34:07.375Z,69.10
2023-01-24T20:37:08.873Z,83.00
2023-01-24T20:40:10.983Z,51.70
2023-01-24T20:43:12.332Z,26.90
2023-01-24T20:46:22.333Z,91.80
2023-01-24T20:49:24.087Z,53.30
2023-01-24T20:52:25.676Z,101.20
2023-01-24T20:55:27.073Z,123.80
2023-01-24T20:58:28.761Z,119.00
2023-01-24T21:01:30.970Z,35.50
2023-01-24T21:04:32.531Z,9.70
2023-01-24T21:07:33.969Z,19.10
2023-01-24T21:10:35.831Z,42.00
2023-01-24T21:13:41.408Z,5.30
2023-01-24T21:16:43.339Z,23.90
2023-01-24T21:19:44.794Z,20.90
2023-01-24T21:22:48.948Z,26.00
2023-01-24T21:25:50.323Z,48.10
2023-01-24T21:28:52.349Z,11.60
2023-01-24T21:31:53.954Z,14.60
2023-01-24T21:34:55.593Z,49.70
2023-01-24T21:37:57.003Z,95.00
2023-01-24T21:41:18.386Z,48.70
2023-01-24T21:44:20.537Z,90.70
2023-01-24T21:47:22.056Z,108.40
2023-01-24T21:50:23.456Z,55.90
2023-01-24T21:53:50.858Z,37.20
2023-01-24T21:57:30.181Z,55.50
2023-01-24T22:00:32.611Z,9.50
2023-01-24T22:03:34.046Z,20.90
2023-01-24T22:06:35.569Z,51.30
2023-01-24T22:09:37.109Z,11.80
2023-01-24T22:12:39.209Z,46.90
2023-01-24T22:15:41.014Z,88.30
2023-01-24T22:18:42.665Z,71.80
2023-01-24T22:22:09.122Z,20.50
2023-01-24T22:25:39.922Z,9.20
2023-01-24T22:28:41.630Z,8.20
2023-01-24T22:31:43.261Z,10.50
2023-01-24T22:34:45.236Z,7.20
2023-01-24T22:37:49.456Z,6.00
2023-01-24T22:40:50.775Z,6.80
2023-01-24T22:43:52.117Z,22.30
2023-01-24T22:46:53.485Z,35.10
2023-01-24T22:49:54.934Z,9.60
2023-01-24T22:52:56.367Z,6.20
2023-01-24T22:55:58.472Z,5.30
2023-01-24T22:59:00.049Z,36.90
2023-01-24T23:02:01.899Z,54.00
2023-01-24T23:05:03.590Z,74.60
2023-01-24T23:08:05.352Z,28.50
2023-01-24T23:11:19.089Z,58.60
2023-01-24T23:14:39.410Z,51.40
2023-01-24T23:17:43.652Z,47.30
2023-01-24T23:21:03.687Z,42.40
2023-01-24T23:24:05.341Z,56.10
2023-01-24T23:27:07.454Z,64.80
2023-01-24T23:30:11.821Z,57.20
2023-01-24T23:33:39.252Z,53.30
2023-01-24T23:36:40.573Z,54.50
2023-01-24T23:39:41.978Z,50.30
2023-01-24T23:42:43.798Z,40.90
2023-01-24T23:45:45.271Z,48.60
2023-01-24T23:48:46.811Z,48.80
2023-01-24T23:51:48.204Z,33.30
2023-01-24T23:54:49.774Z,18.30
2023-01-24T23:57:51.181Z,33.50
